ESGGEETU

Guest
Details From ESGG - Goteborg Landvetter
To EETU - TARTU
Flight Number -
Tags decoded
Created
Modified
Stats Distance 480 nm / 889 km
Max Altitude 0 ft / 0 m
Waypoints 5
Social Downloads 0
Likes 0
Share VATSIM

Download

Looking for another format? Having issues loading an existing format? Contact us
Advertisement - Login to hide

Notes

Requested: ESGG LABAN N873 DETSO L734 NITSO L732 ASVAR EETU Unmatched points: L734 L732 ASVAR

Route

ESGG LABAN N873 DETSO NITSO EETU

ID Type Via Altitude Latitude Longitude Leg Dist Tot Dist Heading (true) Name
O ESGG APT - 0 ft / 0 m 57.66284˚ 12.27982˚ - 0 nm - Goteborg Landvetter
LABAN FIX - 0 ft / 0 m 58.16939˚ 13.29431˚ 44 nm 44 nm 46° / 47° -
DETSO FIX N873 (AWY-LO) 0 ft / 0 m 58.60000˚ 14.26436˚ 40 nm 84 nm 49° / 50° -
NITSO FIX - 0 ft / 0 m 58.80889˚ 24.97000˚ 333 nm 418 nm 83° / 92° -
O EETU APT - 0 ft / 0 m 58.30746˚ 26.69043˚ 61 nm 480 nm 118° / 120° TARTU

Altitude Profile

Advertisement - Login to hide

Weather


0- 5 10 15 20 25 30 35+ Temperature / ° C

Clouds and Precipitation
Forecast for 2017-12-18 18:00 UTC. Updated 2 minutes ago

Ground ~20,000 ft ~40,000 ft Winds

ESGG

Details ICAO ESGG (GOT)
Name Goteborg Landvetter
Region Sweden
Timezone Europe/Stockholm (UTC+1.0)
Stats Elevation 506 ft / 154 m (AMSL)
Location 57.662836° 12.279819°
Runways 1
Magnetic Variation 3.717° E

METAR

ESGG 181720Z 18008KT 1900 -DZ BR OVC001 01/01 Q1021 R21/29//95

Decode

TAF

TAF AMD ESGG 181621Z 1816/1912 18010KT 3000 -DZ BR OVC003 TEMPO 1816/1912 0200 FG VV002

Decode

Departure Runways

ID Width Length Bearing (true) Bearing (mag) Surface Threshold Offset Overrun Length
03 148 ft / 45 m 10,804 ft / 3,293 m 25.94° 22.22° Asphalt 0 ft / 0 m 207 ft / 63 m
21 148 ft / 45 m 10,804 ft / 3,293 m 205.96° 202.24° Asphalt 0 ft / 0 m 207 ft / 63 m

EETU

Details ICAO EETU (TAY)
Name TARTU
Region Estonia
Timezone Europe/Tallinn (UTC+2.0)
Stats Elevation 219 ft / 67 m (AMSL)
Location 58.307462° 26.690427°
Runways 1
Magnetic Variation 8.946° E

METAR

EETU 181650Z 19007KT 9999 OVC032 M01/M03 Q1023

Decode

TAF

Not found

Destination Runways

ID Width Length Bearing (true) Bearing (mag) Surface Threshold Offset Overrun Length
08 115 ft / 35 m 4,510 ft / 1,375 m 88.42° 79.47° Asphalt 0 ft / 0 m 0 ft / 0 m
26 115 ft / 35 m 4,510 ft / 1,375 m 268.44° 259.49° Asphalt 0 ft / 0 m 0 ft / 0 m